Time;durP1;ratioP1;P1;durP2;ratioP2;P2;SDS_P1;SDS_P2;PMS_P1;PMS_P2;Temp;Humidity;BMP_temperature;BMP_pressure;BME280_temperature;BME280_humidity;BME280_pressure;Samples;Min_cycle;Max_cycle;Signal;HPM_P1;HPM_P2
2022/10/31 00:00:50;;;;;;;11.87;5.43;;;14.60;99.90;;;;;;4973110;28;20232;-75
2022/10/31 00:03:17;;;;;;;8.13;4.83;;;14.60;99.90;;;;;;4973238;28;20514;-75
2022/10/31 00:05:45;;;;;;;9.80;4.50;;;14.60;99.90;;;;;;4973241;28;20202;-75
2022/10/31 00:08:10;;;;;;;7.93;5.00;;;14.40;99.90;;;;;;4972798;28;20780;-75
2022/10/31 00:10:40;;;;;;;5.37;4.90;;;14.40;99.90;;;;;;4972735;28;20512;-77
2022/10/31 00:13:07;;;;;;;9.30;4.30;;;14.40;99.90;;;;;;4972514;28;20594;-76
2022/10/31 00:15:37;;;;;;;8.07;4.63;;;14.40;99.90;;;;;;4972670;28;20444;-76
2022/10/31 00:18:04;;;;;;;7.27;4.60;;;14.40;99.90;;;;;;4973187;28;20395;-76
2022/10/31 00:20:30;;;;;;;8.57;4.33;;;14.40;99.90;;;;;;4973143;28;20402;-76
2022/10/31 00:23:00;;;;;;;9.03;4.33;;;14.40;99.90;;;;;;4973225;28;20407;-76
2022/10/31 00:25:27;;;;;;;8.70;4.70;;;14.50;99.90;;;;;;4972872;28;20182;-75
2022/10/31 00:27:53;;;;;;;7.63;4.63;;;14.50;99.90;;;;;;4972207;28;20423;-75
2022/10/31 00:30:18;;;;;;;8.30;5.10;;;14.50;99.90;;;;;;4972859;28;20406;-76
2022/10/31 00:32:44;;;;;;;6.40;4.30;;;14.40;99.90;;;;;;4973149;28;20703;-75
2022/10/31 00:35:09;;;;;;;6.43;4.50;;;14.40;99.90;;;;;;4972589;28;20258;-75
2022/10/31 00:37:35;;;;;;;8.60;5.07;;;14.40;99.90;;;;;;4972645;28;20369;-76
2022/10/31 00:40:01;;;;;;;8.00;5.00;;;14.30;99.90;;;;;;4987966;28;20181;-75
2022/10/31 00:42:26;;;;;;;5.00;4.50;;;14.20;99.90;;;;;;4972571;28;20554;-75
2022/10/31 00:44:52;;;;;;;5.77;4.77;;;14.30;99.90;;;;;;4972579;28;20416;-75
2022/10/31 00:47:17;;;;;;;6.80;4.47;;;14.30;99.90;;;;;;4972558;28;20200;-76
2022/10/31 00:49:43;;;;;;;4.50;4.10;;;14.20;99.90;;;;;;4973124;28;20181;-75
2022/10/31 00:52:09;;;;;;;6.90;5.03;;;14.20;99.90;;;;;;4973481;28;20201;-75
2022/10/31 00:54:34;;;;;;;8.20;4.90;;;14.20;99.90;;;;;;4970764;28;20176;-75
2022/10/31 00:57:00;;;;;;;6.07;4.77;;;14.20;99.90;;;;;;4973249;28;20696;-75
2022/10/31 00:59:25;;;;;;;6.17;4.17;;;14.30;99.90;;;;;;4973384;28;20185;-76
2022/10/31 01:01:51;;;;;;;8.50;5.00;;;14.20;99.90;;;;;;4973606;28;20177;-76
2022/10/31 01:04:16;;;;;;;5.63;4.60;;;14.20;99.90;;;;;;4973192;28;20713;-76
2022/10/31 01:06:42;;;;;;;6.73;5.10;;;14.20;99.90;;;;;;4972121;28;20198;-77
2022/10/31 01:09:07;;;;;;;7.67;5.47;;;14.20;99.90;;;;;;4972471;28;20182;-76
2022/10/31 01:11:33;;;;;;;8.57;4.40;;;14.20;99.90;;;;;;4971907;28;20279;-76
2022/10/31 01:13:59;;;;;;;7.33;4.53;;;14.20;99.90;;;;;;4971716;28;20208;-76
2022/10/31 01:16:26;;;;;;;9.60;5.40;;;14.20;99.90;;;;;;4972043;28;20301;-76
2022/10/31 01:18:52;;;;;;;7.07;5.00;;;14.10;99.90;;;;;;4972120;28;20161;-75
2022/10/31 01:21:21;;;;;;;10.70;4.87;;;14.10;99.90;;;;;;4971815;28;20814;-75
2022/10/31 01:23:46;;;;;;;9.13;4.53;;;13.90;99.90;;;;;;4971917;28;20590;-75
2022/10/31 01:26:21;;;;;;;8.67;5.83;;;13.90;99.90;;;;;;4972038;28;20431;-76
2022/10/31 01:28:49;;;;;;;7.60;4.50;;;13.90;99.90;;;;;;4971305;28;20424;-76
2022/10/31 01:31:16;;;;;;;9.83;5.90;;;14.00;99.90;;;;;;4972070;28;20477;-76
2022/10/31 01:33:41;;;;;;;5.93;4.77;;;14.00;99.90;;;;;;4971839;28;20409;-76
2022/10/31 01:36:12;;;;;;;6.70;4.80;;;13.90;99.90;;;;;;4970339;28;20429;-76
2022/10/31 01:38:38;;;;;;;11.57;4.97;;;14.00;99.90;;;;;;4971691;28;20173;-75
2022/10/31 01:41:04;;;;;;;9.10;5.17;;;14.00;99.90;;;;;;4972285;28;20409;-75
2022/10/31 01:43:51;;;;;;;5.83;5.23;;;14.00;99.90;;;;;;4969982;28;20173;-75
2022/10/31 01:46:25;;;;;;;7.23;5.23;;;14.00;99.90;;;;;;4971946;28;20627;-75
2022/10/31 01:48:52;;;;;;;9.63;5.40;;;14.00;99.90;;;;;;4971968;28;20739;-75
2022/10/31 01:51:23;;;;;;;7.67;4.50;;;14.00;99.90;;;;;;4971479;28;20449;-76
2022/10/31 01:53:50;;;;;;;10.13;5.37;;;14.00;99.90;;;;;;4972183;28;20890;-75
2022/10/31 01:56:17;;;;;;;8.63;5.47;;;14.00;99.90;;;;;;4971422;28;20437;-75
2022/10/31 01:58:45;;;;;;;9.03;5.50;;;14.00;99.90;;;;;;4969244;28;20408;-75
2022/10/31 02:01:12;;;;;;;7.73;4.97;;;13.90;99.90;;;;;;4971738;28;20422;-75
2022/10/31 02:03:38;;;;;;;7.87;5.10;;;13.90;99.90;;;;;;4971838;28;20827;-75
2022/10/31 02:06:09;;;;;;;8.77;5.33;;;13.90;99.90;;;;;;4969909;28;20483;-75
2022/10/31 02:08:37;;;;;;;7.50;4.40;;;14.00;99.90;;;;;;5054927;28;20192;-74
2022/10/31 02:11:02;;;;;;;7.67;3.73;;;14.00;99.90;;;;;;5054003;28;20453;-76
2022/10/31 02:13:29;;;;;;;6.20;4.83;;;13.90;99.90;;;;;;4971193;28;20411;-76
2022/10/31 02:15:57;;;;;;;8.77;4.53;;;13.90;99.90;;;;;;4971338;28;20216;-76
2022/10/31 02:18:25;;;;;;;6.37;4.60;;;13.80;99.90;;;;;;4971344;28;20435;-75
2022/10/31 02:20:58;;;;;;;5.83;4.50;;;13.80;99.90;;;;;;4971444;28;20533;-75
2022/10/31 02:23:45;;;;;;;6.40;4.87;;;13.80;99.90;;;;;;4971490;28;20400;-76
2022/10/31 02:26:24;;;;;;;5.60;4.30;;;13.80;99.90;;;;;;4971165;28;20420;-76
2022/10/31 02:29:16;;;;;;;7.27;4.57;;;13.80;99.90;;;;;;4970841;28;20421;-76
2022/10/31 02:31:59;;;;;;;7.60;5.70;;;13.90;99.90;;;;;;4971420;28;20445;-76
2022/10/31 02:34:58;;;;;;;6.63;4.67;;;13.90;99.90;;;;;;4989078;28;20437;-76
2022/10/31 02:37:58;;;;;;;7.00;4.90;;;13.80;99.90;;;;;;4974487;28;20429;-76
2022/10/31 02:40:32;;;;;;;8.83;5.30;;;13.70;99.90;;;;;;4996409;28;20422;-76
2022/10/31 02:43:17;;;;;;;9.17;4.80;;;13.70;99.90;;;;;;4974131;28;20401;-76
2022/10/31 02:46:00;;;;;;;6.50;5.30;;;13.80;99.90;;;;;;4974863;28;20421;-76
2022/10/31 02:48:29;;;;;;;7.73;5.57;;;13.70;99.90;;;;;;4974694;28;20484;-76
2022/10/31 02:50:59;;;;;;;7.20;5.00;;;13.60;99.90;;;;;;4973209;28;20558;-75
2022/10/31 02:53:24;;;;;;;6.10;4.70;;;13.60;99.90;;;;;;4974580;28;20405;-75
2022/10/31 02:56:05;;;;;;;5.57;4.87;;;13.50;99.90;;;;;;4974217;28;20827;-76
2022/10/31 02:58:47;;;;;;;10.83;6.10;;;13.40;99.90;;;;;;4973891;28;20193;-75
2022/10/31 03:01:50;;;;;;;9.43;6.13;;;13.50;99.90;;;;;;4974772;28;20396;-75
2022/10/31 03:04:25;;;;;;;8.67;5.33;;;13.40;99.90;;;;;;4974296;28;20458;-76
2022/10/31 03:07:18;;;;;;;8.73;5.50;;;13.40;99.90;;;;;;4989107;28;21007;-75
2022/10/31 03:09:52;;;;;;;8.03;6.20;;;13.40;99.90;;;;;;4974040;28;20401;-76
2022/10/31 03:12:37;;;;;;;6.77;5.40;;;13.50;99.90;;;;;;4973702;28;20488;-75
2022/10/31 03:15:19;;;;;;;7.70;6.00;;;13.40;99.90;;;;;;4973522;28;20383;-76
2022/10/31 03:18:18;;;;;;;12.63;6.30;;;13.50;99.90;;;;;;4974179;28;20781;-76
2022/10/31 03:20:51;;;;;;;6.20;4.57;;;13.50;99.90;;;;;;4986729;28;20455;-77
2022/10/31 03:23:19;;;;;;;7.30;5.33;;;13.50;99.90;;;;;;4974263;28;20374;-76
2022/10/31 03:25:46;;;;;;;7.20;5.77;;;13.50;99.90;;;;;;4973658;28;20415;-76
2022/10/31 03:28:14;;;;;;;8.43;6.27;;;13.50;99.90;;;;;;4971692;28;20420;-76
2022/10/31 03:30:43;;;;;;;6.70;6.03;;;13.50;99.90;;;;;;4973629;28;20879;-76
2022/10/31 03:33:14;;;;;;;7.90;5.30;;;13.50;99.90;;;;;;4973530;28;20401;-76
2022/10/31 03:35:44;;;;;;;8.27;6.03;;;13.50;99.90;;;;;;4973810;28;20458;-76
2022/10/31 03:38:11;;;;;;;9.40;6.33;;;13.40;99.90;;;;;;4973500;28;20422;-76
2022/10/31 03:40:40;;;;;;;7.10;5.30;;;13.40;99.90;;;;;;4973554;28;20906;-76
2022/10/31 03:43:10;;;;;;;7.90;5.60;;;13.50;99.90;;;;;;4973322;28;20401;-76
2022/10/31 03:45:43;;;;;;;6.23;5.57;;;13.50;99.90;;;;;;4972625;28;20432;-76
2022/10/31 03:48:09;;;;;;;7.13;5.17;;;13.40;99.90;;;;;;4971633;28;20428;-76
2022/10/31 03:50:49;;;;;;;8.03;5.07;;;13.30;99.90;;;;;;4972845;28;20402;-76
2022/10/31 03:53:26;;;;;;;7.57;5.57;;;13.30;99.90;;;;;;4973375;28;20192;-76
2022/10/31 03:56:00;;;;;;;8.33;5.50;;;13.30;99.90;;;;;;4973260;28;20514;-76
2022/10/31 03:58:52;;;;;;;5.53;4.70;;;13.40;99.90;;;;;;4971438;28;20448;-76
2022/10/31 04:01:19;;;;;;;6.33;5.10;;;13.40;99.90;;;;;;5021643;28;20420;-76
2022/10/31 04:03:46;;;;;;;7.87;5.63;;;13.30;99.90;;;;;;4973094;28;20924;-76
2022/10/31 04:06:14;;;;;;;8.30;6.17;;;13.20;99.90;;;;;;4973021;28;20439;-75
2022/10/31 04:08:45;;;;;;;8.10;6.03;;;13.10;99.90;;;;;;4973109;28;20405;-76
2022/10/31 04:11:13;;;;;;;5.63;5.03;;;13.10;99.90;;;;;;4973239;28;20435;-76
2022/10/31 04:13:41;;;;;;;7.27;5.00;;;13.20;99.90;;;;;;4971389;28;20935;-75
2022/10/31 04:16:08;;;;;;;6.67;5.50;;;13.10;99.90;;;;;;4972639;28;20449;-76
2022/10/31 04:18:34;;;;;;;6.73;6.00;;;13.20;99.90;;;;;;4973084;28;20407;-75
2022/10/31 04:21:02;;;;;;;7.50;5.70;;;13.30;99.90;;;;;;4972730;28;20506;-75
2022/10/31 04:23:28;;;;;;;5.53;4.87;;;13.30;99.90;;;;;;4972782;28;20187;-75
2022/10/31 04:25:54;;;;;;;6.60;5.47;;;13.30;99.90;;;;;;4972688;28;20440;-75
2022/10/31 04:28:19;;;;;;;6.70;5.27;;;13.30;99.90;;;;;;4971958;28;20455;-75
2022/10/31 04:30:45;;;;;;;8.17;5.27;;;13.30;99.90;;;;;;4972668;28;20661;-75
2022/10/31 04:33:10;;;;;;;7.40;5.10;;;13.30;99.90;;;;;;4973083;28;20168;-75
2022/10/31 04:35:36;;;;;;;8.60;5.30;;;13.30;99.90;;;;;;4972576;28;20196;-76
2022/10/31 04:38:02;;;;;;;8.27;6.13;;;13.30;99.90;;;;;;4972585;28;20540;-76
2022/10/31 04:40:27;;;;;;;8.63;5.73;;;13.30;99.90;;;;;;4972884;28;20173;-76
2022/10/31 04:42:53;;;;;;;8.43;5.90;;;13.20;99.90;;;;;;4972648;28;20187;-76
2022/10/31 04:45:18;;;;;;;7.10;5.23;;;13.20;99.90;;;;;;4972271;28;20176;-75
2022/10/31 04:47:44;;;;;;;8.60;5.03;;;13.30;99.90;;;;;;4972466;28;20186;-75
2022/10/31 04:50:09;;;;;;;6.77;4.80;;;13.20;99.90;;;;;;4972587;28;20176;-75
2022/10/31 04:52:43;;;;;;;8.97;5.10;;;13.20;99.90;;;;;;4972702;28;20564;-75
2022/10/31 04:55:10;;;;;;;10.10;5.60;;;13.20;99.90;;;;;;4972665;28;20172;-75
2022/10/31 04:57:42;;;;;;;6.50;5.30;;;13.10;99.90;;;;;;4971543;28;20908;-75
2022/10/31 05:00:09;;;;;;;8.30;5.80;;;13.20;99.90;;;;;;4951384;29;20404;-76
2022/10/31 05:02:42;;;;;;;11.07;6.00;;;13.00;99.90;;;;;;4953113;28;20827;-76
2022/10/31 05:05:07;;;;;;;10.33;5.30;;;12.90;99.90;;;;;;4953271;28;20403;-76
2022/10/31 05:07:33;;;;;;;10.90;4.90;;;12.90;99.90;;;;;;4953486;28;20473;-75
2022/10/31 05:09:58;;;;;;;6.87;5.10;;;12.90;99.90;;;;;;4952943;28;20184;-76
2022/10/31 05:12:24;;;;;;;6.20;5.47;;;12.90;99.90;;;;;;4953092;28;20209;-76
2022/10/31 05:14:49;;;;;;;6.80;4.67;;;12.80;99.90;;;;;;4952391;28;20268;-76
2022/10/31 05:17:15;;;;;;;6.70;5.00;;;12.90;99.90;;;;;;4995029;23;20271;-74
2022/10/31 05:19:41;;;;;;;7.57;5.67;;;12.90;99.90;;;;;;4991887;28;20230;-74
2022/10/31 05:22:06;;;;;;;7.87;6.10;;;12.90;99.90;;;;;;4991549;28;20177;-75
2022/10/31 05:24:32;;;;;;;11.17;6.10;;;12.80;99.90;;;;;;4990239;28;20172;-74
2022/10/31 05:26:57;;;;;;;7.37;6.30;;;12.80;99.90;;;;;;4991758;28;20190;-74
2022/10/31 05:29:23;;;;;;;8.57;6.00;;;12.80;99.90;;;;;;5003011;28;20200;-75
2022/10/31 05:31:48;;;;;;;6.80;5.70;;;12.80;99.90;;;;;;5011302;28;20615;-74
2022/10/31 05:34:14;;;;;;;8.03;6.13;;;12.80;99.90;;;;;;5011102;28;20694;-74
2022/10/31 05:36:39;;;;;;;8.77;5.57;;;12.70;99.90;;;;;;5010831;28;20583;-75
2022/10/31 05:39:05;;;;;;;7.33;5.83;;;12.80;99.90;;;;;;5009531;28;20171;-75
2022/10/31 05:41:30;;;;;;;5.33;4.50;;;12.80;99.90;;;;;;5010808;28;20677;-74
2022/10/31 05:43:56;;;;;;;6.97;5.67;;;12.80;99.90;;;;;;5010359;28;20642;-75
2022/10/31 05:46:21;;;;;;;10.60;5.43;;;12.80;99.90;;;;;;4997008;28;20190;-74
2022/10/31 05:48:47;;;;;;;7.77;5.67;;;12.70;99.90;;;;;;4990959;28;20169;-75
2022/10/31 05:51:12;;;;;;;9.10;5.43;;;12.80;99.90;;;;;;4991093;28;20200;-74
2022/10/31 05:53:38;;;;;;;7.27;6.10;;;12.70;99.90;;;;;;4991195;28;20225;-74
2022/10/31 05:56:03;;;;;;;8.13;6.10;;;12.60;99.90;;;;;;4989705;28;20192;-75
2022/10/31 05:58:29;;;;;;;8.30;5.83;;;12.60;99.90;;;;;;4996043;28;20165;-74
2022/10/31 06:00:55;;;;;;;7.60;5.70;;;12.70;99.90;;;;;;5011295;28;20178;-75
2022/10/31 06:03:20;;;;;;;10.80;5.90;;;12.70;99.90;;;;;;5010623;28;20182;-75
2022/10/31 06:05:46;;;;;;;9.00;6.23;;;12.70;99.90;;;;;;5010963;28;20286;-75
2022/10/31 06:08:11;;;;;;;8.03;5.60;;;12.70;99.90;;;;;;5011526;28;20207;-75
2022/10/31 06:10:37;;;;;;;9.07;6.30;;;12.60;99.90;;;;;;5014497;28;20169;-75
2022/10/31 06:13:02;;;;;;;12.37;6.00;;;12.60;99.90;;;;;;5013790;28;20162;-75
2022/10/31 06:15:28;;;;;;;6.30;4.87;;;12.60;99.90;;;;;;5013726;28;20640;-74
2022/10/31 06:18:02;;;;;;;10.00;7.37;;;12.60;99.90;;;;;;5013962;28;20663;-74
2022/10/31 06:20:27;;;;;;;6.93;5.07;;;12.50;99.90;;;;;;5014097;28;20169;-74
2022/10/31 06:22:53;;;;;;;6.40;5.70;;;12.50;99.90;;;;;;5013957;28;20496;-75
2022/10/31 06:25:19;;;;;;;8.53;5.77;;;12.50;99.90;;;;;;5013986;28;20174;-74
2022/10/31 06:27:44;;;;;;;11.43;6.90;;;12.40;99.90;;;;;;5012325;28;20195;-75
2022/10/31 06:30:10;;;;;;;8.20;5.60;;;12.40;99.90;;;;;;5012263;28;20244;-75
2022/10/31 06:32:35;;;;;;;7.50;6.80;;;12.40;99.90;;;;;;5013848;28;20669;-74
2022/10/31 06:35:01;;;;;;;11.00;6.10;;;12.50;99.90;;;;;;5013397;28;20204;-74
2022/10/31 06:37:26;;;;;;;7.43;6.00;;;12.60;99.90;;;;;;5013910;28;20188;-75
2022/10/31 06:39:52;;;;;;;11.60;6.37;;;12.70;99.90;;;;;;5008131;28;20186;-75
2022/10/31 06:42:18;;;;;;;8.00;6.20;;;12.70;99.90;;;;;;4983839;28;20176;-73
2022/10/31 06:44:43;;;;;;;7.70;6.77;;;12.70;99.90;;;;;;4973844;28;20676;-75
2022/10/31 06:47:09;;;;;;;8.83;5.73;;;12.80;99.90;;;;;;4974583;28;20194;-74
2022/10/31 06:49:34;;;;;;;8.03;5.40;;;12.80;99.90;;;;;;4974326;28;20608;-74
2022/10/31 06:52:00;;;;;;;9.20;6.33;;;12.90;99.90;;;;;;4974215;28;20224;-74
2022/10/31 06:54:25;;;;;;;7.83;5.20;;;13.00;99.90;;;;;;4974144;28;20257;-75
2022/10/31 06:56:52;;;;;;;8.03;6.50;;;13.00;99.90;;;;;;4974474;28;20197;-74
2022/10/31 06:59:17;;;;;;;9.90;7.00;;;13.00;99.90;;;;;;4996903;28;20633;-74
2022/10/31 07:01:43;;;;;;;7.17;5.97;;;12.90;99.90;;;;;;5013109;28;20482;-74
2022/10/31 07:04:10;;;;;;;8.30;5.77;;;12.90;99.90;;;;;;5013135;28;20179;-75
2022/10/31 07:06:36;;;;;;;7.20;6.17;;;12.90;99.90;;;;;;5011757;28;20196;-74
2022/10/31 07:09:01;;;;;;;14.37;6.40;;;12.90;99.90;;;;;;5013270;28;20472;-74
2022/10/31 07:11:27;;;;;;;8.93;6.47;;;13.00;99.90;;;;;;5013033;28;20206;-75
2022/10/31 07:13:52;;;;;;;6.37;5.43;;;13.00;99.90;;;;;;5012654;28;20542;-73
2022/10/31 07:16:18;;;;;;;9.60;5.70;;;13.10;99.90;;;;;;5012800;28;20755;-73
2022/10/31 07:18:43;;;;;;;6.67;5.13;;;13.00;99.90;;;;;;5013095;28;20159;-75
2022/10/31 07:21:09;;;;;;;8.00;5.70;;;13.00;99.90;;;;;;5012474;28;20179;-75
2022/10/31 07:23:34;;;;;;;8.90;6.60;;;13.10;99.90;;;;;;5012869;28;20171;-74
2022/10/31 07:26:00;;;;;;;9.93;5.87;;;13.20;99.90;;;;;;5012898;28;20196;-74
2022/10/31 07:28:26;;;;;;;10.20;6.10;;;13.30;99.90;;;;;;5012641;28;20282;-74
2022/10/31 07:30:53;;;;;;;8.80;6.37;;;13.40;99.90;;;;;;5012311;28;20168;-74
2022/10/31 07:33:19;;;;;;;9.73;6.40;;;13.50;99.90;;;;;;5013148;28;20491;-74
2022/10/31 07:35:45;;;;;;;7.57;6.20;;;13.60;99.90;;;;;;5013329;28;20503;-74
2022/10/31 07:38:12;;;;;;;9.00;6.80;;;13.60;99.90;;;;;;4991322;28;20412;-74
2022/10/31 07:40:38;;;;;;;7.40;6.20;;;13.70;99.90;;;;;;4993335;28;20174;-74
2022/10/31 07:43:04;;;;;;;8.53;6.07;;;13.70;99.90;;;;;;4993160;28;20440;-74
2022/10/31 07:45:32;;;;;;;7.83;5.40;;;13.80;99.90;;;;;;4993093;28;20964;-74
2022/10/31 07:47:58;;;;;;;6.97;6.27;;;13.90;99.90;;;;;;4993210;28;20172;-75
2022/10/31 07:50:29;;;;;;;6.57;5.97;;;14.00;99.90;;;;;;4994908;28;20409;-74
2022/10/31 07:53:06;;;;;;;8.00;6.13;;;14.10;99.90;;;;;;4993736;28;20708;-74
2022/10/31 07:55:32;;;;;;;12.57;6.07;;;14.10;99.90;;;;;;4993200;28;20386;-75
2022/10/31 07:57:59;;;;;;;9.30;7.13;;;14.20;99.90;;;;;;4994075;28;20439;-73
2022/10/31 08:00:25;;;;;;;7.50;6.70;;;14.40;99.90;;;;;;5012002;28;20771;-75
2022/10/31 08:03:17;;;;;;;9.13;7.30;;;14.40;99.90;;;;;;5012328;28;20818;-74
2022/10/31 08:05:46;;;;;;;9.67;6.67;;;14.50;99.90;;;;;;5009954;28;20447;-75
2022/10/31 08:08:13;;;;;;;11.30;6.97;;;14.50;99.90;;;;;;5012054;28;20462;-75
2022/10/31 08:10:40;;;;;;;10.47;7.30;;;14.60;99.90;;;;;;5011887;28;20409;-75
2022/10/31 08:13:09;;;;;;;17.63;10.73;;;14.80;99.90;;;;;;5011880;28;20429;-74
2022/10/31 08:15:37;;;;;;;13.63;10.73;;;14.90;99.90;;;;;;5011667;28;20404;-74
2022/10/31 08:18:04;;;;;;;19.60;11.70;;;14.90;99.90;;;;;;5011932;28;20381;-74
2022/10/31 08:20:29;;;;;;;13.13;9.80;;;15.00;99.90;;;;;;5011810;28;20402;-74
2022/10/31 08:23:03;;;;;;;11.70;7.77;;;15.10;99.90;;;;;;5011951;28;20413;-72
2022/10/31 08:25:31;;;;;;;13.60;7.77;;;15.10;99.90;;;;;;5011571;28;20273;-74
2022/10/31 08:27:57;;;;;;;8.60;6.90;;;15.20;99.90;;;;;;5011205;28;20418;-74
2022/10/31 08:30:25;;;;;;;7.70;6.90;;;15.30;99.90;;;;;;5011221;28;20426;-74
2022/10/31 08:33:06;;;;;;;10.00;5.50;;;15.50;99.90;;;;;;5011685;28;20233;-73
2022/10/31 08:35:32;;;;;;;6.83;6.13;;;15.60;99.90;;;;;;5011849;28;20418;-73
2022/10/31 08:37:59;;;;;;;9.10;7.60;;;15.70;99.90;;;;;;5011934;28;20409;-75
2022/10/31 08:40:25;;;;;;;10.80;6.20;;;15.80;99.90;;;;;;5012402;28;20436;-75
2022/10/31 08:43:02;;;;;;;11.70;6.80;;;15.80;99.90;;;;;;5011614;28;20501;-75
2022/10/31 08:45:29;;;;;;;10.63;8.47;;;15.60;99.90;;;;;;5011364;28;20397;-74
2022/10/31 08:48:06;;;;;;;8.67;7.40;;;15.60;99.90;;;;;;5012325;28;20425;-74
2022/10/31 08:50:33;;;;;;;10.07;7.97;;;15.70;99.90;;;;;;5012065;28;20387;-76
2022/10/31 08:53:11;;;;;;;12.73;8.97;;;15.60;99.90;;;;;;5012296;28;20456;-74
2022/10/31 08:55:38;;;;;;;9.73;7.70;;;15.30;99.90;;;;;;5014805;28;20399;-74
2022/10/31 08:58:06;;;;;;;9.73;7.60;;;15.20;99.90;;;;;;5011550;28;20813;-75
2022/10/31 09:00:33;;;;;;;11.13;8.37;;;15.20;99.90;;;;;;5011404;28;20407;-75
2022/10/31 09:03:02;;;;;;;11.00;7.77;;;15.20;99.90;;;;;;5010164;28;20455;-74
2022/10/31 09:05:28;;;;;;;11.20;8.13;;;15.30;99.90;;;;;;5011732;28;20415;-74
2022/10/31 09:08:01;;;;;;;11.73;7.27;;;15.50;99.90;;;;;;5011407;28;20418;-75
2022/10/31 09:10:27;;;;;;;10.43;7.80;;;15.60;99.90;;;;;;5011299;28;20463;-75
2022/10/31 09:13:08;;;;;;;10.20;8.97;;;15.20;99.90;;;;;;5011308;28;20451;-74
2022/10/31 09:15:35;;;;;;;8.70;7.60;;;15.20;99.90;;;;;;5010711;28;20422;-74
2022/10/31 09:18:01;;;;;;;10.63;8.63;;;15.60;99.90;;;;;;5011343;28;20409;-75
2022/10/31 09:20:28;;;;;;;12.47;8.17;;;15.70;99.90;;;;;;5011329;28;20926;-75
2022/10/31 09:23:02;;;;;;;12.70;9.47;;;16.00;99.90;;;;;;5011361;28;20206;-74
2022/10/31 09:25:29;;;;;;;10.77;8.57;;;16.10;99.90;;;;;;5011237;28;20387;-73
2022/10/31 09:27:58;;;;;;;9.53;7.60;;;16.20;99.90;;;;;;5010867;28;20411;-74
2022/10/31 09:30:28;;;;;;;11.40;8.23;;;16.40;99.90;;;;;;5009486;28;20781;-73
2022/10/31 09:33:06;;;;;;;9.67;7.93;;;16.60;99.90;;;;;;4976082;28;20990;-74
2022/10/31 09:35:32;;;;;;;10.97;8.67;;;16.90;99.90;;;;;;4980430;28;20502;-74
2022/10/31 09:37:59;;;;;;;10.37;9.03;;;17.00;99.90;;;;;;4972253;28;20889;-75
2022/10/31 09:40:34;;;;;;;10.27;7.73;;;17.00;99.90;;;;;;4970959;28;20231;-75
2022/10/31 09:43:36;;;;;;;8.83;7.93;;;17.20;99.90;;;;;;4971674;28;20859;-71
2022/10/31 09:46:27;;;;;;;12.00;8.10;;;17.30;99.90;;;;;;4971764;28;20876;-74
2022/10/31 09:49:13;;;;;;;15.30;8.20;;;16.70;99.90;;;;;;4972158;28;20794;-76
2022/10/31 09:51:46;;;;;;;15.70;8.67;;;16.60;99.90;;;;;;4972619;28;20447;-74
2022/10/31 09:54:17;;;;;;;10.63;7.20;;;16.70;99.90;;;;;;4971718;28;20424;-75
2022/10/31 09:56:44;;;;;;;12.53;8.70;;;16.70;99.90;;;;;;4970108;28;20432;-75
2022/10/31 09:59:39;;;;;;;11.97;8.40;;;16.70;99.90;;;;;;4990083;28;20415;-75
2022/10/31 10:02:49;;;;;;;11.83;9.40;;;17.00;99.90;;;;;;5006790;28;20415;-74
2022/10/31 10:05:22;;;;;;;13.43;8.43;;;17.30;99.90;;;;;;4950495;28;20804;-75
2022/10/31 10:08:01;;;;;;;10.30;7.70;;;16.90;99.90;;;;;;5000875;28;20426;-74
2022/10/31 10:10:30;;;;;;;8.33;7.40;;;17.10;99.90;;;;;;5010941;28;20407;-74
2022/10/31 10:13:05;;;;;;;10.33;8.40;;;17.00;99.90;;;;;;5009336;28;20558;-73
2022/10/31 10:16:08;;;;;;;14.50;8.90;;;16.70;99.90;;;;;;5010143;28;20387;-74
2022/10/31 10:18:48;;;;;;;9.90;7.97;;;16.60;99.90;;;;;;5010985;28;20818;-74
2022/10/31 10:21:37;;;;;;;15.07;8.53;;;16.60;99.90;;;;;;5010667;28;20434;-76
2022/10/31 10:24:24;;;;;;;12.13;7.67;;;16.70;99.90;;;;;;5010477;28;20388;-76
2022/10/31 10:26:57;;;;;;;10.10;7.20;;;17.20;99.90;;;;;;5010322;28;20450;-75
2022/10/31 10:29:41;;;;;;;11.17;8.07;;;17.30;99.90;;;;;;5009835;28;20418;-75
2022/10/31 10:32:22;;;;;;;14.37;8.37;;;17.30;99.90;;;;;;5010251;28;20529;-75
2022/10/31 10:35:11;;;;;;;12.83;7.90;;;17.30;99.90;;;;;;5010490;28;20387;-76
2022/10/31 10:37:41;;;;;;;9.40;7.10;;;17.50;99.90;;;;;;5009958;28;20431;-75
2022/10/31 10:40:20;;;;;;;14.17;8.43;;;17.80;99.90;;;;;;5010520;28;20915;-74
2022/10/31 10:43:21;;;;;;;11.67;7.67;;;17.80;99.90;;;;;;5009110;28;20410;-74
2022/10/31 10:49:10;;;;;;;10.20;7.20;;;18.00;99.90;;;;;;5010136;28;20405;-75
2022/10/31 10:51:58;;;;;;;9.40;7.80;;;18.20;99.90;;;;;;4987935;28;20459;-75
2022/10/31 10:54:30;;;;;;;8.17;7.40;;;18.30;99.90;;;;;;5012505;28;20438;-76
2022/10/31 10:57:03;;;;;;;10.37;8.17;;;18.40;99.90;;;;;;5013656;28;20415;-75
2022/10/31 10:59:30;;;;;;;9.67;7.00;;;18.40;99.90;;;;;;5012890;28;20932;-75
2022/10/31 11:01:55;;;;;;;9.77;7.23;;;17.90;99.90;;;;;;5014398;28;20428;-75
2022/10/31 11:04:40;;;;;;;8.20;7.10;;;17.90;99.90;;;;;;5014394;28;20403;-75
2022/10/31 11:07:11;;;;;;;8.90;7.23;;;18.20;99.90;;;;;;5013481;28;20188;-76
2022/10/31 11:09:37;;;;;;;11.77;8.30;;;18.10;99.90;;;;;;5013646;28;20436;-76
2022/10/31 11:12:17;;;;;;;8.53;7.07;;;18.20;99.90;;;;;;5011853;28;20446;-75
2022/10/31 11:14:47;;;;;;;9.57;7.27;;;18.20;99.90;;;;;;5013021;28;20384;-76
2022/10/31 11:17:39;;;;;;;10.03;7.40;;;18.50;99.90;;;;;;5010084;23;20533;-75
2022/10/31 11:20:13;;;;;;;9.50;6.67;;;18.70;99.90;;;;;;4974560;28;20539;-75
2022/10/31 11:22:41;;;;;;;15.57;8.23;;;19.30;99.90;;;;;;4974426;28;20415;-76
2022/10/31 11:25:19;;;;;;;8.60;7.43;;;19.70;99.90;;;;;;4973887;28;20907;-76
2022/10/31 11:27:45;;;;;;;10.00;7.87;;;20.30;99.90;;;;;;4988133;28;20964;-76
2022/10/31 11:30:13;;;;;;;10.10;7.33;;;20.80;99.90;;;;;;4973959;28;20771;-76
2022/10/31 11:32:50;;;;;;;10.03;7.97;;;21.10;99.90;;;;;;4973927;28;20457;-76
2022/10/31 11:35:18;;;;;;;9.47;6.90;;;21.60;99.90;;;;;;4973994;28;20396;-76
2022/10/31 11:37:45;;;;;;;11.53;7.30;;;21.20;99.90;;;;;;4973891;28;20433;-76
2022/10/31 11:40:22;;;;;;;12.17;7.40;;;20.80;99.90;;;;;;4973710;28;20416;-77
2022/10/31 11:42:49;;;;;;;8.50;7.13;;;20.60;99.90;;;;;;4972389;28;20426;-76
2022/10/31 11:45:28;;;;;;;10.77;7.93;;;21.20;99.90;;;;;;4973057;28;20420;-77
2022/10/31 11:47:56;;;;;;;15.17;9.00;;;21.20;99.90;;;;;;4973473;28;20444;-76
2022/10/31 11:50:40;;;;;;;11.93;8.00;;;21.20;99.90;;;;;;4972064;28;20420;-76
2022/10/31 11:53:18;;;;;;;10.73;9.10;;;21.10;99.90;;;;;;4973463;28;20480;-76
2022/10/31 11:55:45;;;;;;;11.10;8.63;;;21.30;99.90;;;;;;4973412;28;20492;-77
2022/10/31 11:58:25;;;;;;;12.83;7.70;;;21.70;99.90;;;;;;4972249;28;20847;-76
2022/10/31 12:00:53;;;;;;;10.80;8.23;;;22.00;99.90;;;;;;4972897;28;20404;-76
2022/10/31 12:03:22;;;;;;;9.93;8.40;;;22.00;99.90;;;;;;4973704;28;20771;-76
2022/10/31 12:06:11;;;;;;;10.63;8.00;;;22.00;99.90;;;;;;4972688;28;20408;-75
2022/10/31 12:08:38;;;;;;;10.80;8.47;;;21.90;99.90;;;;;;4978097;28;20424;-76
2022/10/31 12:11:30;;;;;;;14.43;8.53;;;21.40;99.90;;;;;;4973523;28;20891;-76
2022/10/31 12:14:15;;;;;;;11.00;7.67;;;21.70;99.90;;;;;;4973129;28;20390;-76
2022/10/31 12:16:49;;;;;;;13.30;8.50;;;21.70;99.90;;;;;;4972474;28;20818;-76
2022/10/31 12:19:52;;;;;;;8.50;7.10;;;21.40;99.90;;;;;;4973270;28;20412;-76
2022/10/31 12:22:17;;;;;;;11.23;8.33;;;21.20;99.90;;;;;;4973301;28;20405;-75
2022/10/31 12:24:56;;;;;;;11.67;7.40;;;21.30;99.90;;;;;;4972987;28;20949;-76
2022/10/31 12:27:43;;;;;;;9.77;7.13;;;22.50;99.90;;;;;;4962690;28;20270;-75
2022/10/31 12:30:19;;;;;;;11.57;8.30;;;22.40;99.90;;;;;;4972335;28;20462;-75
2022/10/31 12:33:09;;;;;;;10.40;7.60;;;22.00;99.90;;;;;;4973025;28;20432;-75
2022/10/31 12:35:45;;;;;;;10.33;8.73;;;21.60;99.90;;;;;;4972748;28;20409;-76
2022/10/31 12:38:40;;;;;;;10.57;7.37;;;22.10;99.90;;;;;;4972956;28;20882;-76
2022/10/31 12:41:26;;;;;;;9.70;7.27;;;22.10;99.90;;;;;;4972852;28;20390;-77
2022/10/31 12:44:13;;;;;;;11.43;7.87;;;21.50;99.90;;;;;;4972613;28;20409;-76
2022/10/31 12:46:57;;;;;;;11.73;8.53;;;20.80;99.90;;;;;;4972398;28;20452;-75
2022/10/31 12:49:45;;;;;;;16.17;8.80;;;21.00;99.90;;;;;;4972898;28;20390;-76
2022/10/31 12:52:16;;;;;;;13.17;9.13;;;21.10;99.90;;;;;;4972659;28;20445;-76
2022/10/31 12:55:06;;;;;;;10.47;8.77;;;21.20;99.90;;;;;;4980959;28;20417;-76
2022/10/31 12:58:09;;;;;;;11.73;8.07;;;21.30;99.90;;;;;;4966083;28;20825;-76
2022/10/31 13:00:41;;;;;;;15.60;8.57;;;21.20;99.90;;;;;;4982722;28;20833;-76
2022/10/31 13:03:28;;;;;;;10.70;7.67;;;21.20;99.90;;;;;;4953394;29;20394;-75
2022/10/31 13:06:05;;;;;;;13.13;7.50;;;21.10;99.90;;;;;;4953065;28;20447;-76
2022/10/31 13:08:40;;;;;;;10.07;8.03;;;21.10;99.90;;;;;;4953163;29;20390;-76